Time;durP1;ratioP1;P1;durP2;ratioP2;P2;SDS_P1;SDS_P2;PMS_P1;PMS_P2;Temp;Humidity;BMP_temperature;BMP_pressure;BME280_temperature;BME280_humidity;BME280_pressure;Samples;Min_cycle;Max_cycle;Signal;HPM_P1;HPM_P2
2020/12/07 00:00:40;;;;;;;39.80;20.50;;;3.80;99.90;;;;;;4959880;28;20263;-73
2020/12/07 00:03:06;;;;;;;40.93;21.77;;;3.80;99.90;;;;;;4969899;28;20184;-73
2020/12/07 00:05:32;;;;;;;33.60;19.67;;;3.80;99.90;;;;;;4954255;28;20464;-73
2020/12/07 00:08:01;;;;;;;32.60;19.80;;;3.80;99.90;;;;;;4949801;28;20549;-72
2020/12/07 00:10:26;;;;;;;36.53;18.60;;;3.70;99.90;;;;;;4961583;28;20460;-73
2020/12/07 00:12:52;;;;;;;39.10;19.67;;;3.70;99.90;;;;;;4955162;28;20660;-73
2020/12/07 00:15:18;;;;;;;39.53;20.07;;;3.80;99.90;;;;;;4960174;28;20189;-73
2020/12/07 00:17:43;;;;;;;39.77;21.23;;;3.70;99.90;;;;;;4955620;28;20604;-73
2020/12/07 00:20:10;;;;;;;41.67;20.30;;;3.70;99.90;;;;;;4959073;28;20190;-73
2020/12/07 00:22:36;;;;;;;36.20;19.47;;;3.70;99.90;;;;;;4957111;28;20272;-73
2020/12/07 00:25:03;;;;;;;38.00;21.00;;;3.80;99.90;;;;;;4962261;28;21023;-72
2020/12/07 00:27:32;;;;;;;36.10;21.50;;;3.70;99.90;;;;;;4956489;28;20506;-73
2020/12/07 00:29:59;;;;;;;29.97;18.20;;;3.70;99.90;;;;;;4947216;28;20453;-73
2020/12/07 00:32:25;;;;;;;33.33;20.20;;;3.70;99.90;;;;;;4951242;28;20551;-73
2020/12/07 00:34:52;;;;;;;33.47;19.23;;;3.70;99.90;;;;;;4959990;28;20471;-73
2020/12/07 00:37:18;;;;;;;27.83;17.80;;;3.70;99.90;;;;;;4963835;28;20467;-73
2020/12/07 00:39:45;;;;;;;31.90;18.10;;;3.80;99.90;;;;;;4961467;28;20516;-73
2020/12/07 00:42:11;;;;;;;27.87;16.57;;;3.80;99.90;;;;;;4952444;28;21269;-72
2020/12/07 00:44:38;;;;;;;33.37;19.07;;;3.80;99.90;;;;;;4950486;28;20885;-73
2020/12/07 00:47:05;;;;;;;29.37;17.50;;;3.80;99.90;;;;;;4956053;28;20448;-73
2020/12/07 00:49:31;;;;;;;30.93;17.57;;;3.80;99.90;;;;;;4959176;28;20479;-73
2020/12/07 00:51:57;;;;;;;37.97;18.97;;;3.80;99.90;;;;;;4960008;28;20461;-73
2020/12/07 00:54:23;;;;;;;26.80;16.43;;;3.80;99.90;;;;;;4967184;28;20440;-73
2020/12/07 00:56:56;;;;;;;22.10;14.53;;;3.80;99.90;;;;;;4962017;28;20471;-73
2020/12/07 00:59:26;;;;;;;31.17;14.03;;;3.80;99.90;;;;;;4956061;28;20728;-73
2020/12/07 01:01:54;;;;;;;24.93;14.10;;;3.80;99.90;;;;;;4953514;28;20447;-73
2020/12/07 01:04:20;;;;;;;23.97;15.53;;;3.80;99.90;;;;;;4959362;28;20865;-73
2020/12/07 01:06:47;;;;;;;26.47;16.10;;;3.80;99.90;;;;;;4969804;28;20538;-73
2020/12/07 01:09:15;;;;;;;30.50;16.50;;;3.80;99.90;;;;;;4963612;28;20475;-73
2020/12/07 01:11:42;;;;;;;22.10;13.30;;;3.90;99.90;;;;;;4961431;28;20535;-73
2020/12/07 01:14:12;;;;;;;23.40;13.97;;;3.80;99.90;;;;;;4973348;28;20846;-74
2020/12/07 01:16:37;;;;;;;21.83;13.90;;;3.80;99.90;;;;;;4959254;28;20476;-73
2020/12/07 01:19:05;;;;;;;22.60;14.30;;;3.80;99.90;;;;;;4967182;28;20962;-73
2020/12/07 01:21:32;;;;;;;23.73;13.20;;;3.80;99.90;;;;;;4971844;28;20437;-73
2020/12/07 01:23:59;;;;;;;22.77;13.10;;;3.80;99.90;;;;;;4962194;28;24826;-73
2020/12/07 01:26:25;;;;;;;22.03;12.97;;;3.90;99.90;;;;;;4960390;28;20468;-73
2020/12/07 01:28:51;;;;;;;26.23;14.13;;;3.90;99.90;;;;;;4950153;28;21109;-73
2020/12/07 01:31:17;;;;;;;18.10;11.60;;;3.80;99.90;;;;;;4945323;28;20873;-73
2020/12/07 01:33:44;;;;;;;19.27;12.37;;;3.80;99.90;;;;;;4958309;28;21165;-73
2020/12/07 01:36:11;;;;;;;17.33;11.03;;;3.90;99.90;;;;;;4958242;28;20481;-73
2020/12/07 01:38:37;;;;;;;19.30;12.13;;;3.90;99.90;;;;;;4958931;28;20440;-73
2020/12/07 01:41:04;;;;;;;15.67;10.53;;;3.90;99.90;;;;;;4951769;28;20539;-73
2020/12/07 01:43:30;;;;;;;18.03;11.20;;;4.00;99.90;;;;;;4949568;28;20442;-73
2020/12/07 01:45:57;;;;;;;20.23;11.60;;;4.00;99.90;;;;;;4944843;28;20996;-73
2020/12/07 01:48:25;;;;;;;15.23;10.87;;;3.90;99.90;;;;;;4942466;28;20447;-73
2020/12/07 01:50:53;;;;;;;18.40;11.23;;;3.90;99.90;;;;;;4944422;28;20462;-73
2020/12/07 01:53:21;;;;;;;17.00;11.00;;;4.00;99.90;;;;;;4975929;28;20468;-73
2020/12/07 01:55:48;;;;;;;13.57;9.90;;;3.90;99.90;;;;;;4952608;28;20546;-72
2020/12/07 01:58:14;;;;;;;16.70;10.87;;;3.90;99.90;;;;;;4951183;28;21023;-73
2020/12/07 02:00:41;;;;;;;17.50;12.53;;;3.90;99.90;;;;;;4958512;28;20451;-73
2020/12/07 02:03:11;;;;;;;15.20;11.03;;;3.90;99.90;;;;;;4948260;28;20449;-73
2020/12/07 02:05:38;;;;;;;20.73;10.80;;;4.00;99.90;;;;;;4965567;28;20460;-73
2020/12/07 02:08:18;;;;;;;17.57;10.67;;;4.00;99.90;;;;;;4952455;28;20508;-73
2020/12/07 02:10:54;;;;;;;15.97;10.70;;;4.00;99.90;;;;;;4954944;28;20439;-73
2020/12/07 02:13:23;;;;;;;17.37;11.37;;;4.00;99.90;;;;;;4952511;28;20808;-73
2020/12/07 02:15:49;;;;;;;18.20;10.20;;;4.00;99.90;;;;;;4951084;28;21263;-73
2020/12/07 02:18:20;;;;;;;18.87;12.50;;;4.10;99.90;;;;;;4955240;28;20825;-73
2020/12/07 02:20:47;;;;;;;19.60;12.47;;;4.00;99.90;;;;;;4948527;28;21351;-73
2020/12/07 02:23:21;;;;;;;18.63;12.10;;;4.00;99.90;;;;;;4950512;28;21314;-73
2020/12/07 02:25:52;;;;;;;21.13;13.50;;;4.00;99.90;;;;;;4947478;28;20991;-73
2020/12/07 02:28:19;;;;;;;20.77;14.00;;;4.00;99.90;;;;;;4961303;28;20885;-73
2020/12/07 02:30:45;;;;;;;21.77;12.87;;;4.00;99.90;;;;;;4960797;28;20902;-73
2020/12/07 02:33:11;;;;;;;23.23;14.07;;;4.00;99.90;;;;;;4958761;28;20436;-73
2020/12/07 02:35:36;;;;;;;21.43;13.53;;;4.00;99.90;;;;;;4955326;28;20560;-74
2020/12/07 02:38:02;;;;;;;21.10;14.47;;;4.00;99.90;;;;;;4954707;28;20180;-73
2020/12/07 02:40:33;;;;;;;20.47;14.37;;;4.00;99.90;;;;;;4962004;28;20251;-73
2020/12/07 02:43:00;;;;;;;22.83;14.80;;;4.00;99.90;;;;;;4952109;28;20904;-73
2020/12/07 02:45:29;;;;;;;19.70;14.53;;;3.90;99.90;;;;;;4949580;28;21080;-73
2020/12/07 02:48:01;;;;;;;21.00;13.47;;;3.90;99.90;;;;;;4946624;28;20482;-73
2020/12/07 02:50:30;;;;;;;23.53;15.67;;;4.00;99.90;;;;;;4952864;28;20797;-73
2020/12/07 02:52:56;;;;;;;22.23;13.87;;;4.00;99.90;;;;;;4960331;28;20843;-73
2020/12/07 02:55:22;;;;;;;20.80;13.90;;;4.00;99.90;;;;;;4968601;28;20460;-72
2020/12/07 02:57:49;;;;;;;20.77;14.93;;;4.00;99.90;;;;;;4956045;28;20458;-73
2020/12/07 03:00:21;;;;;;;20.03;13.60;;;4.00;99.90;;;;;;4948524;28;20961;-72
2020/12/07 03:02:48;;;;;;;20.57;14.27;;;4.00;99.90;;;;;;4944611;28;20854;-73
2020/12/07 03:05:18;;;;;;;19.70;14.30;;;3.90;99.90;;;;;;4954799;28;20512;-73
2020/12/07 03:07:44;;;;;;;25.73;15.60;;;3.90;99.90;;;;;;4969797;28;20467;-73
2020/12/07 03:10:10;;;;;;;22.43;14.67;;;3.90;99.90;;;;;;4947321;28;20939;-73
2020/12/07 03:12:39;;;;;;;24.47;14.77;;;4.00;99.90;;;;;;4954459;28;20559;-73
2020/12/07 03:15:08;;;;;;;26.67;15.13;;;4.00;99.90;;;;;;4950955;28;20455;-73
2020/12/07 03:17:37;;;;;;;21.07;15.37;;;4.00;99.90;;;;;;4958780;28;21202;-72
2020/12/07 03:20:03;;;;;;;21.70;15.30;;;4.00;99.90;;;;;;4954285;28;20443;-72
2020/12/07 03:22:29;;;;;;;23.80;16.07;;;3.90;99.90;;;;;;4965679;28;20184;-73
2020/12/07 03:24:56;;;;;;;24.27;14.97;;;3.80;99.90;;;;;;4958947;28;20491;-73
2020/12/07 03:27:21;;;;;;;27.33;15.70;;;3.90;99.90;;;;;;4971194;28;21787;-72
2020/12/07 03:29:47;;;;;;;23.03;15.87;;;3.90;99.90;;;;;;4944358;28;20447;-73
2020/12/07 03:32:15;;;;;;;24.47;15.90;;;3.80;99.90;;;;;;4961212;28;20539;-72
2020/12/07 03:34:40;;;;;;;27.27;17.70;;;3.80;99.90;;;;;;4955581;28;20437;-73
2020/12/07 03:37:06;;;;;;;26.70;17.10;;;3.80;99.90;;;;;;4970526;28;20240;-72
2020/12/07 03:40:02;;;;;;;23.30;16.80;;;3.90;99.90;;;;;;4945452;28;20437;-72
2020/12/07 03:42:35;;;;;;;29.30;18.17;;;3.90;99.90;;;;;;4956572;28;20972;-73
2020/12/07 03:45:04;;;;;;;25.27;16.57;;;3.90;99.90;;;;;;4959522;28;20433;-73
2020/12/07 03:47:30;;;;;;;22.63;15.53;;;3.80;99.90;;;;;;4954188;28;20449;-73
2020/12/07 03:49:56;;;;;;;23.97;17.03;;;3.80;99.90;;;;;;4956606;28;20983;-72
2020/12/07 03:52:22;;;;;;;26.90;18.13;;;3.80;99.90;;;;;;4954585;28;20849;-72
2020/12/07 03:54:48;;;;;;;26.60;15.10;;;3.80;99.90;;;;;;4959530;28;20224;-73
2020/12/07 03:57:15;;;;;;;22.67;15.50;;;3.80;99.90;;;;;;4954464;28;20602;-72
2020/12/07 03:59:42;;;;;;;24.97;16.40;;;3.80;99.90;;;;;;4959150;28;21017;-72
2020/12/07 04:02:08;;;;;;;26.60;15.83;;;3.80;99.90;;;;;;4948167;28;21525;-72
2020/12/07 04:04:53;;;;;;;27.07;17.77;;;3.80;99.90;;;;;;4947006;28;21095;-72
2020/12/07 04:07:19;;;;;;;30.80;18.53;;;3.80;99.90;;;;;;4970681;28;20566;-72
2020/12/07 04:09:47;;;;;;;26.07;17.77;;;3.80;99.90;;;;;;4957967;28;20464;-72
2020/12/07 04:12:13;;;;;;;27.33;16.90;;;3.80;99.90;;;;;;4946459;28;20580;-72
2020/12/07 04:14:39;;;;;;;25.60;16.40;;;3.80;99.90;;;;;;4956087;28;20600;-72
2020/12/07 04:17:04;;;;;;;23.80;16.63;;;3.90;99.90;;;;;;4952396;28;20217;-72
2020/12/07 04:19:30;;;;;;;24.00;16.90;;;3.80;99.90;;;;;;4956862;28;20256;-73
2020/12/07 04:21:55;;;;;;;28.37;18.23;;;3.80;99.90;;;;;;4947732;28;20186;-73
2020/12/07 04:24:21;;;;;;;26.17;17.60;;;3.80;99.90;;;;;;4958022;28;20377;-72
2020/12/07 04:26:48;;;;;;;19.83;15.00;;;3.80;99.90;;;;;;4961407;28;21272;-72
2020/12/07 04:29:14;;;;;;;25.63;18.87;;;3.80;99.90;;;;;;4964964;28;20703;-72
2020/12/07 04:31:40;;;;;;;26.80;18.43;;;3.80;99.90;;;;;;4949254;28;20530;-72
2020/12/07 04:34:05;;;;;;;24.80;16.73;;;3.90;99.90;;;;;;4950586;28;20464;-72
2020/12/07 04:36:31;;;;;;;22.70;17.03;;;3.90;99.90;;;;;;4946018;28;20304;-72
2020/12/07 04:38:57;;;;;;;25.13;16.97;;;3.80;99.90;;;;;;4950348;28;20181;-72
2020/12/07 04:41:22;;;;;;;25.40;16.83;;;3.80;99.90;;;;;;4950339;28;20195;-72
2020/12/07 04:43:49;;;;;;;25.73;17.83;;;3.80;99.90;;;;;;4950713;28;20204;-72
2020/12/07 04:46:16;;;;;;;24.00;16.00;;;3.80;99.90;;;;;;4950753;28;20194;-72
2020/12/07 04:48:44;;;;;;;21.20;15.33;;;3.80;99.90;;;;;;4957695;28;20474;-73
2020/12/07 04:51:10;;;;;;;21.30;14.30;;;3.80;99.90;;;;;;4952085;28;20474;-73
2020/12/07 04:53:37;;;;;;;18.73;13.90;;;3.80;99.90;;;;;;4958242;28;20845;-72
2020/12/07 04:56:02;;;;;;;23.20;15.53;;;3.80;99.90;;;;;;4959740;28;20494;-73
2020/12/07 04:58:28;;;;;;;21.40;14.80;;;3.70;99.90;;;;;;4957264;28;20922;-73
2020/12/07 05:00:54;;;;;;;20.07;14.07;;;3.70;99.90;;;;;;4968134;28;20488;-73
2020/12/07 05:03:20;;;;;;;23.53;15.53;;;3.70;99.90;;;;;;4961010;28;20189;-73
2020/12/07 05:05:51;;;;;;;22.23;15.03;;;3.70;99.90;;;;;;4969069;28;20481;-72
2020/12/07 05:08:17;;;;;;;25.93;17.60;;;3.70;99.90;;;;;;4956372;28;20494;-73
2020/12/07 05:10:44;;;;;;;24.63;16.00;;;3.60;99.90;;;;;;4959534;28;20587;-72
2020/12/07 05:15:55;;;;;;;28.73;17.17;;;3.70;99.90;;;;;;4958070;28;20468;-72
2020/12/07 05:18:20;;;;;;;27.53;18.57;;;3.70;99.90;;;;;;4956028;28;20991;-73
2020/12/07 05:20:48;;;;;;;26.40;17.57;;;3.60;99.90;;;;;;4952856;28;20896;-73
2020/12/07 05:23:17;;;;;;;26.13;17.53;;;3.70;99.90;;;;;;4963708;28;20359;-73
2020/12/07 05:25:45;;;;;;;27.90;17.97;;;3.70;99.90;;;;;;4957649;28;21482;-73
2020/12/07 05:28:12;;;;;;;32.07;21.50;;;3.70;99.90;;;;;;4957574;28;21483;-73
2020/12/07 05:30:44;;;;;;;31.13;19.37;;;3.70;99.90;;;;;;4958660;28;20525;-73
2020/12/07 05:33:12;;;;;;;28.13;18.30;;;3.70;99.90;;;;;;4958387;28;20881;-73
2020/12/07 05:35:39;;;;;;;30.40;19.77;;;3.70;99.90;;;;;;4953491;28;20432;-73
2020/12/07 05:38:05;;;;;;;29.50;18.60;;;3.70;99.90;;;;;;4955313;28;21029;-73
2020/12/07 05:40:32;;;;;;;32.87;20.50;;;3.70;99.90;;;;;;4956637;28;20457;-73
2020/12/07 05:43:00;;;;;;;35.70;21.33;;;3.70;99.90;;;;;;4960423;28;20829;-73
2020/12/07 05:45:26;;;;;;;36.73;23.27;;;3.70;99.90;;;;;;4956518;28;20950;-73
2020/12/07 05:47:53;;;;;;;32.30;21.00;;;3.70;99.90;;;;;;4958435;28;20446;-73
2020/12/07 05:50:21;;;;;;;33.30;20.83;;;3.70;99.90;;;;;;4956433;28;20462;-73
2020/12/07 05:52:52;;;;;;;35.00;22.67;;;3.70;99.90;;;;;;4955725;28;20475;-73
2020/12/07 05:55:20;;;;;;;33.40;20.90;;;3.60;99.90;;;;;;4953225;28;20440;-73
2020/12/07 05:57:47;;;;;;;36.00;21.83;;;3.60;99.90;;;;;;4955667;28;20845;-72
2020/12/07 06:00:21;;;;;;;33.30;21.00;;;3.60;99.90;;;;;;4956194;28;21125;-73
2020/12/07 06:02:53;;;;;;;33.33;21.80;;;3.60;99.90;;;;;;4957349;28;20452;-72
2020/12/07 06:05:23;;;;;;;35.10;20.77;;;3.70;99.90;;;;;;4949670;28;20620;-73
2020/12/07 06:08:00;;;;;;;30.50;20.90;;;3.60;99.90;;;;;;4962457;28;20456;-72
2020/12/07 06:10:31;;;;;;;35.40;21.43;;;3.60;99.90;;;;;;4964601;28;20456;-73
2020/12/07 06:13:00;;;;;;;32.27;20.20;;;3.60;99.90;;;;;;4960963;28;20566;-73
2020/12/07 06:15:26;;;;;;;33.50;20.33;;;3.60;99.90;;;;;;4958418;28;20444;-73
2020/12/07 06:17:53;;;;;;;31.93;20.00;;;3.70;99.90;;;;;;4953463;28;20500;-72
2020/12/07 06:20:33;;;;;;;32.30;19.83;;;3.60;99.90;;;;;;4953659;28;20440;-72
2020/12/07 06:23:01;;;;;;;33.70;20.87;;;3.60;99.90;;;;;;4953753;28;20498;-72
2020/12/07 06:25:37;;;;;;;31.40;20.00;;;3.60;99.90;;;;;;4957108;28;20448;-72
2020/12/07 06:28:04;;;;;;;27.00;18.40;;;3.60;99.90;;;;;;4952953;28;20476;-72
2020/12/07 06:30:36;;;;;;;32.27;19.40;;;3.60;99.90;;;;;;4956230;28;20464;-72
2020/12/07 06:33:09;;;;;;;28.53;19.50;;;3.60;99.90;;;;;;4955878;28;20449;-71
2020/12/07 06:35:43;;;;;;;29.20;18.73;;;3.60;99.90;;;;;;4953555;28;20499;-72
2020/12/07 06:38:08;;;;;;;28.83;18.97;;;3.60;99.90;;;;;;4957033;28;20547;-72
2020/12/07 06:40:36;;;;;;;26.50;18.10;;;3.60;99.90;;;;;;4954754;28;21228;-72
2020/12/07 06:43:28;;;;;;;27.80;18.10;;;3.60;99.90;;;;;;4957366;28;20547;-72
2020/12/07 06:45:54;;;;;;;27.17;18.13;;;3.60;99.90;;;;;;4946058;28;20680;-72
2020/12/07 06:48:22;;;;;;;28.80;18.33;;;3.50;99.90;;;;;;4949783;28;20987;-72
2020/12/07 06:50:50;;;;;;;31.30;18.70;;;3.50;99.90;;;;;;4948233;28;20185;-72
2020/12/07 06:53:35;;;;;;;28.83;18.30;;;3.60;99.90;;;;;;4950921;28;20976;-72
2020/12/07 06:56:00;;;;;;;27.50;18.00;;;3.60;99.90;;;;;;4967346;28;21008;-72
2020/12/07 06:58:31;;;;;;;29.57;19.50;;;3.70;99.90;;;;;;4953968;28;21952;-71
2020/12/07 07:01:05;;;;;;;26.87;17.70;;;3.60;99.90;;;;;;4951722;28;20620;-71
2020/12/07 07:03:30;;;;;;;31.33;19.70;;;3.60;99.90;;;;;;4960304;28;20443;-72
2020/12/07 07:05:56;;;;;;;27.07;18.27;;;3.50;99.90;;;;;;4961042;28;20536;-72
2020/12/07 07:08:22;;;;;;;25.00;16.73;;;3.60;99.90;;;;;;4958024;28;20205;-72
2020/12/07 07:10:47;;;;;;;29.57;18.40;;;3.60;99.90;;;;;;4952724;28;20587;-71
2020/12/07 07:13:14;;;;;;;30.77;19.07;;;3.60;99.90;;;;;;4957155;28;20574;-72
2020/12/07 07:15:42;;;;;;;23.17;16.40;;;3.60;99.90;;;;;;4959793;28;20288;-71
2020/12/07 07:18:08;;;;;;;27.30;17.50;;;3.50;99.90;;;;;;4954959;28;20448;-72
2020/12/07 07:20:34;;;;;;;23.60;16.70;;;3.60;99.90;;;;;;4952174;28;20476;-71
2020/12/07 07:23:00;;;;;;;23.63;16.70;;;3.60;99.90;;;;;;4954623;28;20197;-72
2020/12/07 07:25:39;;;;;;;27.03;17.70;;;3.50;99.90;;;;;;4953110;28;21845;-72
2020/12/07 07:28:08;;;;;;;23.10;16.13;;;3.60;99.90;;;;;;4958504;28;20519;-72
2020/12/07 07:30:34;;;;;;;25.47;18.40;;;3.60;99.90;;;;;;4958085;28;20452;-72
2020/12/07 07:33:00;;;;;;;22.80;15.43;;;3.50;99.90;;;;;;4946699;28;20892;-73
2020/12/07 07:35:31;;;;;;;25.77;16.83;;;3.50;99.90;;;;;;4956532;28;20516;-72
2020/12/07 07:37:58;;;;;;;24.90;16.37;;;3.50;99.90;;;;;;4948426;28;20542;-72
2020/12/07 07:40:26;;;;;;;24.80;16.83;;;3.50;99.90;;;;;;4946607;28;20601;-73
2020/12/07 07:42:55;;;;;;;24.43;16.73;;;3.50;99.90;;;;;;4957749;28;20910;-72
2020/12/07 07:45:23;;;;;;;28.47;16.73;;;3.50;99.90;;;;;;4953863;28;20436;-72
2020/12/07 08:17:48;;;;;;;20.03;14.60;;;3.40;99.90;;;;;;4951201;28;20481;-72
2020/12/07 08:20:15;;;;;;;28.77;16.93;;;3.40;99.90;;;;;;4953210;28;20452;-72
2020/12/07 08:22:40;;;;;;;26.57;16.40;;;3.40;99.90;;;;;;4945612;28;20450;-72
2020/12/07 08:25:06;;;;;;;25.90;16.77;;;3.40;99.90;;;;;;4949298;28;20962;-72
2020/12/07 08:27:33;;;;;;;27.10;16.70;;;3.40;99.90;;;;;;4962264;28;20742;-72
2020/12/07 08:30:08;;;;;;;24.63;16.20;;;3.40;99.90;;;;;;4960065;28;20196;-72
2020/12/07 08:32:34;;;;;;;22.63;14.37;;;3.40;99.90;;;;;;4952596;28;20459;-72
2020/12/07 08:35:10;;;;;;;26.60;14.30;;;3.40;99.90;;;;;;4948948;28;20467;-72
2020/12/07 08:37:45;;;;;;;29.50;15.90;;;3.40;99.90;;;;;;4950503;28;20480;-73
2020/12/07 08:40:11;;;;;;;26.97;14.70;;;3.50;99.90;;;;;;4947941;28;20871;-72
2020/12/07 08:42:37;;;;;;;25.37;15.93;;;3.50;99.90;;;;;;4950253;28;20482;-72
2020/12/07 08:45:03;;;;;;;24.80;14.87;;;3.50;99.90;;;;;;4950746;28;20754;-72
2020/12/07 08:47:29;;;;;;;22.37;15.43;;;3.50;99.90;;;;;;4946981;28;20225;-72
2020/12/07 08:49:55;;;;;;;21.87;14.40;;;3.40;99.90;;;;;;4950919;28;21568;-72
2020/12/07 08:52:20;;;;;;;23.20;13.13;;;3.40;99.90;;;;;;4951901;28;20197;-72
2020/12/07 08:54:46;;;;;;;20.77;13.30;;;3.40;99.90;;;;;;4942526;28;20684;-72
2020/12/07 08:57:11;;;;;;;23.63;15.33;;;3.50;99.90;;;;;;4956980;28;20209;-72
2020/12/07 08:59:37;;;;;;;23.73;15.77;;;3.50;99.90;;;;;;4953736;28;20828;-72
2020/12/07 09:02:03;;;;;;;24.37;15.57;;;3.50;99.90;;;;;;4948278;28;20676;-72
2020/12/07 09:04:29;;;;;;;20.13;12.90;;;3.50;99.90;;;;;;4948983;28;20197;-72
2020/12/07 09:06:55;;;;;;;21.77;14.00;;;3.50;99.90;;;;;;4951937;28;20457;-72
2020/12/07 09:09:20;;;;;;;23.00;14.27;;;3.50;99.90;;;;;;4956643;28;20392;-72
2020/12/07 09:11:46;;;;;;;17.50;12.53;;;3.50;99.90;;;;;;4958140;28;20213;-70
2020/12/07 09:14:12;;;;;;;23.00;14.60;;;3.50;99.90;;;;;;4956234;28;20205;-72
2020/12/07 09:16:38;;;;;;;24.70;14.63;;;3.50;99.90;;;;;;4960888;28;20526;-72
2020/12/07 09:19:04;;;;;;;23.90;14.93;;;3.50;99.90;;;;;;4952341;28;20193;-72
2020/12/07 09:21:29;;;;;;;26.10;12.60;;;3.50;99.90;;;;;;4952419;28;20420;-73
2020/12/07 09:23:55;;;;;;;25.23;13.90;;;3.50;99.90;;;;;;4948489;28;20177;-71
2020/12/07 09:26:21;;;;;;;24.40;14.33;;;3.50;99.90;;;;;;4952814;28;20881;-72
2020/12/07 09:28:46;;;;;;;19.50;13.37;;;3.60;99.90;;;;;;4948203;28;21462;-72
2020/12/07 09:31:12;;;;;;;22.00;13.67;;;3.50;99.90;;;;;;4948823;28;20209;-72
2020/12/07 09:33:38;;;;;;;26.00;14.33;;;3.50;99.90;;;;;;4952776;28;24959;-72
2020/12/07 09:36:04;;;;;;;19.97;12.90;;;3.50;99.90;;;;;;4949083;28;20228;-72
2020/12/07 09:38:30;;;;;;;22.93;14.20;;;3.50;99.90;;;;;;4947935;28;20589;-72
2020/12/07 09:40:56;;;;;;;18.50;13.33;;;3.60;99.90;;;;;;4948581;28;20591;-72
2020/12/07 09:43:22;;;;;;;24.40;15.20;;;3.50;99.90;;;;;;4952368;28;20821;-72
2020/12/07 09:45:47;;;;;;;24.47;15.30;;;3.60;99.90;;;;;;4949068;28;20449;-72
2020/12/07 09:48:13;;;;;;;23.67;16.27;;;3.60;99.90;;;;;;4950102;28;20532;-72
2020/12/07 09:50:39;;;;;;;24.50;16.83;;;3.60;99.90;;;;;;4960806;28;20826;-72
2020/12/07 09:53:15;;;;;;;32.10;17.30;;;3.50;99.90;;;;;;4956236;28;20744;-72
2020/12/07 09:55:41;;;;;;;27.83;18.33;;;3.50;99.90;;;;;;4959288;28;20303;-72
2020/12/07 09:58:07;;;;;;;28.43;18.30;;;3.60;99.90;;;;;;4957391;28;20529;-72
2020/12/07 10:00:32;;;;;;;30.93;16.10;;;3.50;99.90;;;;;;4961232;28;20285;-72
2020/12/07 10:02:58;;;;;;;30.73;17.63;;;3.50;99.90;;;;;;4951184;28;20269;-73
2020/12/07 10:05:24;;;;;;;25.93;17.20;;;3.40;99.90;;;;;;4947906;28;20686;-72
2020/12/07 10:07:50;;;;;;;28.07;16.83;;;3.50;99.90;;;;;;4948834;28;21528;-72
2020/12/07 10:10:16;;;;;;;27.77;17.73;;;3.50;99.90;;;;;;4955675;28;20196;-72
2020/12/07 10:12:41;;;;;;;30.53;18.50;;;3.50;99.90;;;;;;4952222;28;20469;-72
2020/12/07 10:15:08;;;;;;;26.93;16.10;;;3.50;99.90;;;;;;4965376;28;20917;-71
2020/12/07 10:17:37;;;;;;;31.57;18.33;;;3.50;99.90;;;;;;4955738;28;21240;-72
2020/12/07 10:20:04;;;;;;;32.20;16.43;;;3.50;99.90;;;;;;4964773;28;20249;-72
2020/12/07 10:22:30;;;;;;;27.37;16.27;;;3.50;99.90;;;;;;4954112;28;20735;-72
2020/12/07 10:24:55;;;;;;;26.00;16.10;;;3.60;99.90;;;;;;4968149;28;20475;-72
2020/12/07 10:27:21;;;;;;;26.07;16.20;;;3.60;99.90;;;;;;4957365;28;20775;-72
2020/12/07 10:29:46;;;;;;;25.87;16.23;;;3.50;99.90;;;;;;4958926;28;20193;-72
2020/12/07 10:32:12;;;;;;;25.77;15.77;;;3.50;99.90;;;;;;4951006;28;20256;-71
2020/12/07 10:34:38;;;;;;;27.07;15.17;;;3.50;99.90;;;;;;4951620;28;20190;-75
2020/12/07 10:37:06;;;;;;;23.87;14.67;;;3.60;99.90;;;;;;4948976;28;20220;-73
2020/12/07 10:39:31;;;;;;;25.23;16.30;;;3.50;99.90;;;;;;4953270;28;20197;-72
2020/12/07 10:41:57;;;;;;;27.53;17.30;;;3.50;99.90;;;;;;4950112;28;20600;-73
2020/12/07 10:44:23;;;;;;;24.10;17.57;;;3.50;99.90;;;;;;4955083;28;20256;-72
2020/12/07 10:46:50;;;;;;;24.30;15.43;;;3.40;99.90;;;;;;4963277;28;20232;-73
2020/12/07 10:49:15;;;;;;;25.00;15.77;;;3.50;99.90;;;;;;4949477;28;20194;-74
2020/12/07 10:51:41;;;;;;;26.40;17.07;;;3.50;99.90;;;;;;4948981;28;20474;-74
2020/12/07 10:54:07;;;;;;;26.40;15.80;;;3.50;99.90;;;;;;4946877;28;20252;-74
2020/12/07 10:56:33;;;;;;;23.47;15.87;;;3.60;99.90;;;;;;4955019;28;20295;-74
2020/12/07 10:58:59;;;;;;;29.77;16.47;;;3.60;99.90;;;;;;4958024;28;20953;-73
2020/12/07 11:01:24;;;;;;;27.83;16.27;;;3.50;99.90;;;;;;4957009;28;20191;-74
2020/12/07 11:03:50;;;;;;;24.00;14.97;;;3.50;99.90;;;;;;4956308;28;20197;-74
2020/12/07 11:06:23;;;;;;;29.00;15.67;;;3.60;99.90;;;;;;4955062;28;21007;-74
2020/12/07 11:08:54;;;;;;;24.77;15.33;;;3.70;99.90;;;;;;4949339;28;20410;-73
2020/12/07 11:11:22;;;;;;;22.27;14.63;;;3.70;99.90;;;;;;4941874;28;20950;-74
2020/12/07 11:13:48;;;;;;;24.33;13.67;;;3.70;99.90;;;;;;4945661;28;20878;-73
2020/12/07 11:16:14;;;;;;;22.93;13.67;;;3.70;99.90;;;;;;4955692;28;21094;-73
2020/12/07 11:18:41;;;;;;;23.53;13.30;;;3.70;99.90;;;;;;4955427;28;20522;-74
2020/12/07 11:21:15;;;;;;;21.67;13.07;;;3.70;99.90;;;;;;4955217;28;20444;-73
2020/12/07 11:23:46;;;;;;;20.10;13.20;;;3.60;99.90;;;;;;4953048;28;20451;-74
2020/12/07 11:26:15;;;;;;;19.40;12.80;;;3.60;99.90;;;;;;4945248;28;20774;-73
2020/12/07 11:28:41;;;;;;;19.40;12.17;;;3.60;99.90;;;;;;4947926;28;20464;-74
2020/12/07 11:31:12;;;;;;;18.07;12.17;;;3.50;99.90;;;;;;4949922;28;20495;-73
2020/12/07 11:33:38;;;;;;;22.03;13.10;;;3.50;99.90;;;;;;4957823;28;20482;-74
2020/12/07 11:36:04;;;;;;;20.87;12.00;;;3.50;99.90;;;;;;4959699;28;20528;-73
2020/12/07 11:44:14;;;;;;;18.77;11.20;;;3.60;99.90;;;;;;4959653;28;20816;-73
2020/12/07 11:46:41;;;;;;;16.13;10.73;;;3.60;99.90;;;;;;4961217;28;20543;-73
2020/12/07 11:49:07;;;;;;;16.97;11.23;;;3.60;99.90;;;;;;4974634;28;20460;-73
2020/12/07 11:51:33;;;;;;;17.33;11.70;;;3.60;99.90;;;;;;4956592;28;20885;-73
2020/12/07 11:53:59;;;;;;;16.10;11.00;;;3.70;99.90;;;;;;4957368;28;20550;-74
2020/12/07 11:56:28;;;;;;;15.77;9.47;;;3.70;99.90;;;;;;4955886;28;20485;-73
2020/12/07 11:58:54;;;;;;;16.70;10.57;;;3.70;99.90;;;;;;4961345;28;20586;-73
2020/12/07 12:01:19;;;;;;;14.60;10.00;;;3.70;99.90;;;;;;4956547;28;20443;-74
2020/12/07 12:03:45;;;;;;;13.37;7.77;;;3.70;99.90;;;;;;4956543;28;20451;-73
2020/12/07 12:06:11;;;;;;;13.50;8.07;;;3.60;99.90;;;;;;4958101;28;20800;-74
2020/12/07 12:08:36;;;;;;;12.30;7.23;;;3.60;99.90;;;;;;4956543;28;20756;-73
2020/12/07 12:11:02;;;;;;;12.47;7.33;;;3.60;99.90;;;;;;4958293;28;21626;-74
2020/12/07 12:13:27;;;;;;;12.57;7.40;;;3.70;99.90;;;;;;4955340;28;20275;-74
2020/12/07 12:15:53;;;;;;;11.73;7.30;;;3.70;99.90;;;;;;4960407;28;20201;-73
2020/12/07 12:18:19;;;;;;;16.03;8.80;;;3.60;99.90;;;;;;4958490;28;20198;-74
2020/12/07 12:20:49;;;;;;;16.00;8.93;;;3.60;99.90;;;;;;4960269;28;20184;-74
2020/12/07 12:23:14;;;;;;;14.17;7.90;;;3.70;99.90;;;;;;4952149;28;20216;-74
2020/12/07 12:25:40;;;;;;;12.40;7.77;;;3.60;99.90;;;;;;4946327;28;20440;-74
2020/12/07 12:28:07;;;;;;;10.77;6.40;;;3.70;99.90;;;;;;4946269;28;20643;-74
2020/12/07 12:30:33;;;;;;;9.97;7.13;;;3.70;99.90;;;;;;4952905;28;20904;-74
2020/12/07 12:32:58;;;;;;;17.00;8.30;;;3.70;99.90;;;;;;4947959;28;20447;-73
2020/12/07 12:35:25;;;;;;;11.70;7.17;;;3.80;99.90;;;;;;4949820;28;20242;-73
2020/12/07 12:37:51;;;;;;;13.30;7.57;;;3.70;99.90;;;;;;4946831;28;20208;-72
2020/12/07 12:40:17;;;;;;;12.07;6.70;;;3.80;99.90;;;;;;4947774;28;20591;-73
2020/12/07 12:42:43;;;;;;;10.60;6.50;;;4.00;99.90;;;;;;4948255;28;20445;-73
2020/12/07 12:45:10;;;;;;;10.30;6.70;;;4.10;99.90;;;;;;4948980;28;21060;-73
2020/12/07 12:47:35;;;;;;;13.30;8.00;;;4.20;99.90;;;;;;4945679;28;20197;-73
2020/12/07 12:50:01;;;;;;;11.00;7.03;;;4.20;99.90;;;;;;4954001;28;20456;-73
2020/12/07 12:52:26;;;;;;;9.10;5.77;;;4.20;99.90;;;;;;4955995;28;20185;-73
2020/12/07 12:54:52;;;;;;;10.10;6.77;;;4.30;99.90;;;;;;4963123;28;20753;-73
2020/12/07 12:57:18;;;;;;;12.77;7.80;;;4.20;99.90;;;;;;4954510;28;20196;-73
2020/12/07 12:59:44;;;;;;;16.53;6.93;;;4.30;99.90;;;;;;4955838;28;20491;-73
2020/12/07 13:02:09;;;;;;;13.17;7.57;;;4.30;99.90;;;;;;4952619;28;20293;-73
2020/12/07 13:04:35;;;;;;;13.03;8.27;;;4.30;99.90;;;;;;4950147;28;20589;-72
2020/12/07 13:07:01;;;;;;;12.27;7.73;;;4.40;99.90;;;;;;4956622;28;20284;-72
2020/12/07 13:09:26;;;;;;;10.97;8.10;;;4.30;99.90;;;;;;4953595;28;20567;-71
2020/12/07 13:11:52;;;;;;;12.47;8.53;;;4.30;99.90;;;;;;4946291;28;20288;-71
2020/12/07 13:14:17;;;;;;;14.57;8.70;;;4.40;99.90;;;;;;4950507;28;20209;-71
2020/12/07 13:19:25;;;;;;;12.40;8.30;;;4.30;99.90;;;;;;4960502;28;20532;-72